Time;durP1;ratioP1;P1;durP2;ratioP2;P2;SDS_P1;SDS_P2;PMS_P1;PMS_P2;Temp;Humidity;BMP_temperature;BMP_pressure;BME280_temperature;BME280_humidity;BME280_pressure;Samples;Min_cycle;Max_cycle;Signal;HPM_P1;HPM_P2
2022/11/11 00:01:10;;;;;;;;;;;;;;;13.86;55.46;101056.16;4469342;32;33521;-65
2022/11/11 00:03:56;;;;;;;;;;;;;;;13.14;57.91;101055.53;4464909;32;33591;-68
2022/11/11 00:06:42;;;;;;;;;;;;;;;13.47;57.22;101057.00;4477669;32;34320;-66
2022/11/11 00:09:28;;;;;;;;;;;;;;;13.63;56.40;101060.41;4471369;32;33092;-67
2022/11/11 00:12:14;;;;;;;;;;;;;;;13.45;56.94;101051.75;4474408;32;34674;-66
2022/11/11 00:15:02;;;;;;;;;;;;;;;12.77;58.44;101063.22;4471601;32;34447;-64
2022/11/11 00:27:01;;;;;;;;;;;;;;;12.59;59.38;101080.53;4482576;32;34820;-64
2022/11/11 00:29:47;;;;;;;;;;;;;;;12.47;59.80;101082.13;4470713;32;33574;-66
2022/11/11 00:32:33;;;;;;;;;;;;;;;12.78;58.94;101080.25;4454697;32;33953;-64
2022/11/11 00:41:28;;;;;;;;;;;;;;;12.78;58.86;101078.41;4471564;32;35071;-63
2022/11/11 00:44:14;;;;;;;;;;;;;;;12.78;59.10;101085.63;4469629;32;32959;-63
2022/11/11 00:53:13;;;;;;;;;;;;;;;12.92;58.77;101082.06;4471300;32;34550;-63
2022/11/11 00:55:59;;;;;;;;;;;;;;;13.11;58.20;101085.28;4472249;32;33244;-67
2022/11/11 00:58:45;;;;;;;;;;;;;;;13.16;57.93;101087.66;4471633;32;34892;-67
2022/11/11 01:01:31;;;;;;;;;;;;;;;12.97;58.47;101087.97;4470771;31;35073;-64
2022/11/11 01:04:17;;;;;;;;;;;;;;;12.98;58.61;101084.34;4470639;32;35226;-64
2022/11/11 01:07:03;;;;;;;;;;;;;;;13.08;58.27;101082.78;4479615;31;32651;-63
2022/11/11 01:09:49;;;;;;;;;;;;;;;12.89;58.83;101083.09;4474300;32;34238;-64
2022/11/11 01:12:35;;;;;;;;;;;;;;;12.75;58.78;101073.22;4469653;32;34772;-64
2022/11/11 01:15:21;;;;;;;;;;;;;;;12.64;59.23;101075.72;4471433;32;34226;-66
2022/11/11 01:18:07;;;;;;;;;;;;;;;12.90;58.42;101073.22;4476323;32;34243;-67
2022/11/11 01:20:59;;;;;;;;;;;;;;;12.80;58.64;101073.78;4460744;32;33676;-64
2022/11/11 01:23:46;;;;;;;;;;;;;;;12.78;58.85;101075.72;4467585;32;34426;-62
2022/11/11 01:26:32;;;;;;;;;;;;;;;12.62;59.06;101083.03;4467323;32;33934;-64
2022/11/11 01:29:18;;;;;;;;;;;;;;;12.50;59.41;101075.72;4467339;32;33124;-63
2022/11/11 01:32:04;;;;;;;;;;;;;;;12.19;60.48;101076.72;4471455;32;34536;-66
2022/11/11 01:34:50;;;;;;;;;;;;;;;12.01;61.05;101073.34;4466920;32;35007;-67
2022/11/11 01:37:35;;;;;;;;;;;;;;;11.95;61.37;101073.69;4473942;32;34097;-63
2022/11/11 01:40:21;;;;;;;;;;;;;;;12.26;60.36;101075.38;4466723;32;34127;-66
2022/11/11 01:43:06;;;;;;;;;;;;;;;11.91;60.96;101073.00;4480230;32;34296;-64
2022/11/11 01:45:53;;;;;;;;;;;;;;;11.57;62.02;101080.31;4478597;32;34641;-67
2022/11/11 01:52:09;;;;;;;;;;;;;;;11.71;62.11;101082.19;4424707;32;32337;-65
2022/11/11 01:54:56;;;;;;;;;;;;;;;11.71;62.11;101076.81;4477439;32;34374;-65
2022/11/11 01:57:48;;;;;;;;;;;;;;;11.77;61.83;101076.47;4464581;32;34290;-64
2022/11/11 02:00:34;;;;;;;;;;;;;;;11.63;62.34;101068.38;4458213;32;34220;-64
2022/11/11 02:03:20;;;;;;;;;;;;;;;11.69;62.33;101068.00;4467595;32;33314;-64
2022/11/11 02:06:06;;;;;;;;;;;;;;;11.99;61.40;101070.72;4476933;32;34440;-63
2022/11/11 02:08:52;;;;;;;;;;;;;;;12.15;60.85;101073.34;4463213;32;34310;-68
2022/11/11 02:14:44;;;;;;;;;;;;;;;11.98;61.43;101079.75;4459362;32;33151;-67
2022/11/11 02:17:31;;;;;;;;;;;;;;;11.94;61.66;101080.00;4480878;32;34898;-66
2022/11/11 02:20:21;;;;;;;;;;;;;;;12.14;61.38;101081.50;4467840;32;32666;-64
2022/11/11 02:23:09;;;;;;;;;;;;;;;12.36;60.57;101095.38;4471925;32;34205;-65
2022/11/11 02:25:55;;;;;;;;;;;;;;;12.68;59.42;101089.81;4465294;32;33269;-65
2022/11/11 02:28:40;;;;;;;;;;;;;;;12.78;58.81;101078.41;4453988;32;34108;-66
2022/11/11 02:31:27;;;;;;;;;;;;;;;12.66;59.13;101087.22;4460975;32;35539;-66
2022/11/11 02:34:12;;;;;;;;;;;;;;;12.68;59.40;101085.31;4457900;32;32877;-68
2022/11/11 02:36:58;;;;;;;;;;;;;;;12.43;60.37;101085.13;4468542;32;32194;-70
2022/11/11 02:39:45;;;;;;;;;;;;;;;12.63;60.02;101078.50;4461871;32;34024;-67
2022/11/11 02:42:48;;;;;;;;;;;;;;;12.37;60.49;101093.53;4478861;32;34181;-67
2022/11/11 02:45:34;;;;;;;;;;;;;;;12.34;60.73;101095.44;4479917;32;34894;-66
2022/11/11 02:48:20;;;;;;;;;;;;;;;12.27;60.94;101096.78;4480098;32;33357;-67
2022/11/11 02:51:07;;;;;;;;;;;;;;;12.19;61.40;101092.81;4467977;32;34638;-67
2022/11/11 02:53:57;;;;;;;;;;;;;;;11.84;62.30;101099.31;4469990;32;34158;-67
2022/11/11 02:59:48;;;;;;;;;;;;;;;12.20;61.10;101098.13;4457250;32;33884;-67
2022/11/11 03:02:34;;;;;;;;;;;;;;;12.23;61.17;101108.66;4468570;32;33984;-66
2022/11/11 03:05:20;;;;;;;;;;;;;;;12.24;60.81;101099.66;4481153;32;35669;-66
2022/11/11 03:08:06;;;;;;;;;;;;;;;12.19;60.81;101107.09;4475834;32;32887;-67
2022/11/11 03:10:52;;;;;;;;;;;;;;;12.11;61.07;101109.41;4470333;32;34205;-66
2022/11/11 03:13:38;;;;;;;;;;;;;;;11.79;62.19;101109.44;4477720;32;32771;-66
2022/11/11 03:19:29;;;;;;;;;;;;;;;12.14;60.90;101122.63;4466097;32;34820;-66
2022/11/11 03:22:15;;;;;;;;;;;;;;;12.13;61.08;101126.25;4466563;32;34202;-67
2022/11/11 03:25:38;;;;;;;;;;;;;;;12.17;60.64;101125.13;4473192;32;34457;-65
2022/11/11 03:28:24;;;;;;;;;;;;;;;12.18;60.73;101120.63;4452672;32;33773;-67
2022/11/11 03:31:10;;;;;;;;;;;;;;;12.12;61.00;101125.37;4467416;32;34043;-68
2022/11/11 03:34:17;;;;;;;;;;;;;;;12.04;61.39;101130.38;4465774;32;33051;-65
2022/11/11 03:40:06;;;;;;;;;;;;;;;12.05;61.48;101136.59;4470632;32;34727;-67
2022/11/11 03:42:52;;;;;;;;;;;;;;;12.07;61.39;101148.06;4470906;32;35519;-67
2022/11/11 03:45:38;;;;;;;;;;;;;;;12.02;61.43;101145.69;4476583;32;33513;-70
2022/11/11 03:48:24;;;;;;;;;;;;;;;11.78;62.25;101142.59;4470264;32;34221;-69
2022/11/11 03:51:10;;;;;;;;;;;;;;;11.62;62.74;101152.44;4466088;32;34551;-67
2022/11/11 03:53:56;;;;;;;;;;;;;;;11.55;63.02;101148.38;4469690;32;32796;-67
2022/11/11 03:56:42;;;;;;;;;;;;;;;11.58;63.01;101148.19;4478331;32;33819;-68
2022/11/11 03:59:27;;;;;;;;;;;;;;;11.57;63.33;101144.66;4477167;32;34408;-67
2022/11/11 04:11:29;;;;;;;;;;;;;;;11.84;62.00;101152.97;4467461;32;33905;-68
2022/11/11 04:17:19;;;;;;;;;;;;;;;12.18;60.70;101152.84;4468965;32;34230;-66
2022/11/11 04:23:10;;;;;;;;;;;;;;;12.40;59.63;101164.03;4471877;32;34180;-66
2022/11/11 04:25:58;;;;;;;;;;;;;;;12.29;60.00;101158.41;4466406;32;34361;-69
2022/11/11 04:34:54;;;;;;;;;;;;;;;12.17;60.35;101164.53;4473988;32;34014;-68
2022/11/11 04:37:44;;;;;;;;;;;;;;;12.35;59.92;101176.84;4481986;32;34107;-67
2022/11/11 04:45:26;;;;;;;;;;;;;;;12.30;59.71;101178.97;4466217;32;33392;-66
2022/11/11 04:46:40;;;;;;;;;;;;;;;12.15;60.51;101174.47;4465720;32;32870;-66
2022/11/11 04:49:26;;;;;;;;;;;;;;;12.43;59.13;101181.78;4465963;32;35214;-66
2022/11/11 04:52:30;;;;;;;;;;;;;;;12.32;59.73;101183.25;4468594;32;33629;-65
2022/11/11 04:58:21;;;;;;;;;;;;;;;12.13;60.93;101185.28;4473488;32;34184;-65
2022/11/11 05:01:07;;;;;;;;;;;;;;;12.10;61.30;101193.53;4461970;32;32828;-66
2022/11/11 05:03:53;;;;;;;;;;;;;;;12.16;60.66;101185.13;4463689;32;35101;-66
2022/11/11 05:09:44;;;;;;;;;;;;;;;11.74;62.46;101191.97;4465537;32;35289;-66
2022/11/11 05:12:30;;;;;;;;;;;;;;;11.85;62.34;101183.38;4472793;32;35483;-69
2022/11/11 05:21:26;;;;;;;;;;;;;;;12.00;62.09;101185.13;4476425;32;34225;-66
2022/11/11 05:27:16;;;;;;;;;;;;;;;12.03;62.04;101186.78;4465907;32;34388;-66
2022/11/11 05:30:02;;;;;;;;;;;;;;;12.11;61.94;101185.41;4467384;32;34147;-66
2022/11/11 05:32:48;;;;;;;;;;;;;;;12.23;61.35;101183.81;4479037;32;35399;-66
2022/11/11 05:35:35;;;;;;;;;;;;;;;12.22;61.06;101192.81;4465750;32;34843;-66
2022/11/11 05:38:20;;;;;;;;;;;;;;;12.35;61.01;101196.50;4464146;32;34297;-66
2022/11/11 05:41:07;;;;;;;;;;;;;;;12.41;60.56;101189.06;4470523;32;33542;-68
2022/11/11 05:43:52;;;;;;;;;;;;;;;12.26;61.19;101194.38;4474175;32;34203;-66
2022/11/11 05:46:38;;;;;;;;;;;;;;;11.78;62.63;101187.28;4474494;32;34158;-66
2022/11/11 05:49:24;;;;;;;;;;;;;;;11.95;62.18;101189.06;4479751;32;33777;-66
2022/11/11 05:52:12;;;;;;;;;;;;;;;12.15;61.77;101195.97;4465964;32;34473;-66
2022/11/11 05:54:57;;;;;;;;;;;;;;;11.85;62.82;101200.31;4470584;32;33833;-68
2022/11/11 05:57:43;;;;;;;;;;;;;;;11.88;62.40;101202.84;4475966;32;34359;-69
2022/11/11 06:00:29;;;;;;;;;;;;;;;11.85;63.09;101208.38;4468875;32;34875;-67
2022/11/11 06:03:14;;;;;;;;;;;;;;;12.34;61.00;101205.53;4464880;32;32397;-66
2022/11/11 06:06:00;;;;;;;;;;;;;;;12.33;60.65;101205.63;4472426;32;34740;-68
2022/11/11 06:08:46;;;;;;;;;;;;;;;12.09;61.32;101205.22;4467046;32;32667;-68
2022/11/11 06:11:32;;;;;;;;;;;;;;;12.29;60.17;101207.59;4466443;32;33932;-68
2022/11/11 06:14:18;;;;;;;;;;;;;;;12.25;60.84;101215.94;4466680;32;34475;-66
2022/11/11 06:17:04;;;;;;;;;;;;;;;12.48;59.96;101219.94;4479869;32;34089;-68
2022/11/11 06:19:49;;;;;;;;;;;;;;;12.50;59.78;101223.41;4480271;32;34189;-66
2022/11/11 06:28:54;;;;;;;;;;;;;;;12.29;59.96;101226.37;4471066;32;34909;-65
2022/11/11 06:31:39;;;;;;;;;;;;;;;12.07;60.77;101232.16;4466673;32;33277;-66
2022/11/11 06:34:25;;;;;;;;;;;;;;;12.03;61.18;101241.31;4470369;32;34567;-66
2022/11/11 06:37:11;;;;;;;;;;;;;;;12.16;60.89;101246.84;4478383;32;33622;-65
2022/11/11 06:39:57;;;;;;;;;;;;;;;12.23;61.57;101248.25;4478027;32;33720;-67
2022/11/11 06:42:43;;;;;;;;;;;;;;;12.40;61.58;101244.56;4478820;32;34589;-66
2022/11/11 06:45:29;;;;;;;;;;;;;;;12.57;60.74;101240.91;4477055;32;34573;-67
2022/11/11 06:48:15;;;;;;;;;;;;;;;12.76;60.41;101243.34;4467363;32;32009;-66
2022/11/11 06:51:02;;;;;;;;;;;;;;;13.01;60.58;101250.78;4465641;32;32781;-67
2022/11/11 06:53:48;;;;;;;;;;;;;;;13.33;59.13;101243.47;4467360;32;33223;-65
2022/11/11 06:56:34;;;;;;;;;;;;;;;13.46;59.20;101243.56;4469043;32;34297;-66
2022/11/11 06:59:19;;;;;;;;;;;;;;;13.79;57.94;101255.81;4467312;32;33140;-66
2022/11/11 07:02:05;;;;;;;;;;;;;;;14.10;57.28;101252.00;4478213;32;34229;-66
2022/11/11 07:04:51;;;;;;;;;;;;;;;14.77;54.85;101252.03;4466733;32;32880;-67
2022/11/11 07:07:36;;;;;;;;;;;;;;;15.27;53.67;101262.00;4467968;32;34651;-66
2022/11/11 07:10:22;;;;;;;;;;;;;;;15.84;51.83;101271.47;4466788;32;32175;-68
2022/11/11 07:13:08;;;;;;;;;;;;;;;15.98;52.01;101276.72;4476099;32;34122;-66
2022/11/11 07:15:53;;;;;;;;;;;;;;;16.46;50.64;101284.84;4473570;32;35519;-69
2022/11/11 07:18:39;;;;;;;;;;;;;;;17.57;46.83;101284.47;4476046;32;32904;-66
2022/11/11 07:21:25;;;;;;;;;;;;;;;16.90;48.28;101280.66;4470131;32;32872;-66
2022/11/11 07:24:10;;;;;;;;;;;;;;;16.46;49.56;101286.69;4469069;32;33558;-66
2022/11/11 07:26:58;;;;;;;;;;;;;;;15.88;51.21;101299.97;4472029;32;34327;-66
2022/11/11 07:29:44;;;;;;;;;;;;;;;16.07;51.54;101311.16;4469127;32;34770;-66
2022/11/11 07:32:29;;;;;;;;;;;;;;;16.29;50.38;101302.34;4471818;32;34665;-68
2022/11/11 07:35:15;;;;;;;;;;;;;;;16.31;50.43;101310.34;4471889;32;32827;-71
2022/11/11 07:38:01;;;;;;;;;;;;;;;15.77;52.79;101314.25;4470660;32;33798;-67
2022/11/11 07:40:47;;;;;;;;;;;;;;;15.99;51.98;101318.97;4471807;32;34412;-66
2022/11/11 07:43:32;;;;;;;;;;;;;;;16.17;51.39;101315.88;4482525;32;32143;-65
2022/11/11 07:46:18;;;;;;;;;;;;;;;16.05;52.04;101320.34;4477018;32;35377;-67
2022/11/11 07:49:04;;;;;;;;;;;;;;;16.19;52.21;101332.84;4481049;32;35445;-66
2022/11/11 07:51:50;;;;;;;;;;;;;;;16.52;50.86;101327.66;4474274;32;33586;-65
2022/11/11 07:54:35;;;;;;;;;;;;;;;16.89;50.37;101324.06;4469899;32;34664;-67
2022/11/11 07:57:22;;;;;;;;;;;;;;;16.44;50.84;101334.63;4468142;32;34002;-65
2022/11/11 08:00:08;;;;;;;;;;;;;;;17.36;48.59;101325.78;4467480;32;33041;-65
2022/11/11 08:02:54;;;;;;;;;;;;;;;17.55;47.85;101321.63;4470430;32;33010;-65
2022/11/11 08:05:43;;;;;;;;;;;;;;;17.65;47.70;101328.03;4474912;32;34453;-65
2022/11/11 08:08:29;;;;;;;;;;;;;;;17.65;47.40;101325.31;4481342;32;35288;-65
2022/11/11 08:11:15;;;;;;;;;;;;;;;17.59;48.01;101329.41;4481190;32;34136;-65
2022/11/11 08:14:01;;;;;;;;;;;;;;;17.49;48.08;101324.81;4477205;32;34051;-68
2022/11/11 08:16:47;;;;;;;;;;;;;;;17.04;50.16;101325.56;4473153;32;31889;-65
2022/11/11 08:19:33;;;;;;;;;;;;;;;17.05;50.97;101335.44;4467574;32;32838;-65
2022/11/11 08:22:19;;;;;;;;;;;;;;;17.42;49.23;101327.16;4478174;32;34690;-68
2022/11/11 08:25:06;;;;;;;;;;;;;;;17.55;49.10;101327.03;4477323;32;35039;-67
2022/11/11 08:27:56;;;;;;;;;;;;;;;17.31;49.24;101325.28;4473649;32;33625;-66
2022/11/11 08:30:42;;;;;;;;;;;;;;;17.51;49.56;101322.84;4470297;32;33909;-65
2022/11/11 08:33:28;;;;;;;;;;;;;;;17.38;49.97;101328.37;4470372;32;32998;-65
2022/11/11 08:36:19;;;;;;;;;;;;;;;17.86;48.82;101336.34;4478253;32;33614;-65
2022/11/11 08:39:06;;;;;;;;;;;;;;;18.23;47.61;101347.75;4479348;32;33073;-65
2022/11/11 08:41:51;;;;;;;;;;;;;;;18.26;47.51;101347.50;4473145;32;32877;-67
2022/11/11 08:44:37;;;;;;;;;;;;;;;18.49;47.44;101344.75;4470003;32;34035;-69
2022/11/11 08:47:23;;;;;;;;;;;;;;;18.80;46.75;101338.50;4480650;32;35140;-65
2022/11/11 08:50:09;;;;;;;;;;;;;;;19.16;45.67;101332.81;4483521;32;33424;-65
2022/11/11 08:52:55;;;;;;;;;;;;;;;19.37;44.98;101332.81;4476795;32;34896;-65
2022/11/11 08:55:41;;;;;;;;;;;;;;;20.02;43.94;101334.31;4472142;32;32859;-65
2022/11/11 08:58:27;;;;;;;;;;;;;;;21.46;40.75;101334.63;4468257;32;33612;-66
2022/11/11 09:01:13;;;;;;;;;;;;;;;21.21;40.15;101330.62;4470401;32;33238;-69
2022/11/11 09:03:59;;;;;;;;;;;;;;;20.90;40.32;101330.81;4473472;32;35303;-65
2022/11/11 09:07:08;;;;;;;;;;;;;;;20.79;41.79;101333.66;4476145;32;35402;-65
2022/11/11 09:09:54;;;;;;;;;;;;;;;20.86;40.80;101337.50;4474855;32;34580;-68
2022/11/11 09:12:40;;;;;;;;;;;;;;;21.24;40.39;101345.81;4440550;32;921662;-67
2022/11/11 09:15:26;;;;;;;;;;;;;;;22.35;38.10;101344.22;4470860;32;33727;-65
2022/11/11 09:18:11;;;;;;;;;;;;;;;21.49;39.68;101341.66;4469673;32;33865;-66
2022/11/11 09:20:58;;;;;;;;;;;;;;;22.45;37.93;101340.41;4473245;32;33007;-66
2022/11/11 09:23:44;;;;;;;;;;;;;;;23.07;36.40;101340.53;4468596;32;33349;-66
2022/11/11 09:26:30;;;;;;;;;;;;;;;22.23;38.14;101340.84;4477663;32;33675;-65
2022/11/11 09:29:16;;;;;;;;;;;;;;;21.53;38.97;101338.47;4466237;32;34619;-64
2022/11/11 09:32:02;;;;;;;;;;;;;;;20.90;40.07;101338.13;4479187;32;33808;-65
2022/11/11 09:34:48;;;;;;;;;;;;;;;20.37;41.69;101346.59;4481767;32;33499;-65
2022/11/11 09:37:34;;;;;;;;;;;;;;;19.77;43.11;101341.06;4468718;32;32732;-65
2022/11/11 09:40:21;;;;;;;;;;;;;;;19.90;43.02;101338.13;4468360;32;35074;-65
2022/11/11 09:43:12;;;;;;;;;;;;;;;20.58;41.49;101338.37;4467707;32;33787;-67
2022/11/11 09:46:00;;;;;;;;;;;;;;;20.78;40.61;101339.25;4476458;32;32766;-65
2022/11/11 09:49:05;;;;;;;;;;;;;;;20.40;41.24;101328.13;4466690;32;35056;-66
2022/11/11 09:51:52;;;;;;;;;;;;;;;20.17;41.60;101327.50;4473038;32;34345;-67
2022/11/11 09:55:01;;;;;;;;;;;;;;;20.32;41.80;101332.53;4470458;32;34154;-69
2022/11/11 09:57:57;;;;;;;;;;;;;;;20.62;41.36;101321.63;4477474;32;33081;-67
2022/11/11 10:00:45;;;;;;;;;;;;;;;20.71;42.09;101325.34;4473332;32;34173;-68
2022/11/11 10:03:31;;;;;;;;;;;;;;;21.12;41.19;101321.50;4461129;32;34922;-69
2022/11/11 10:06:21;;;;;;;;;;;;;;;21.29;41.53;101319.88;4464641;32;34664;-67
2022/11/11 10:09:19;;;;;;;;;;;;;;;22.02;39.00;101313.75;4468088;32;34510;-66
2022/11/11 10:12:12;;;;;;;;;;;;;;;22.26;38.91;101325.03;4467180;32;32828;-69
2022/11/11 10:15:00;;;;;;;;;;;;;;;22.46;38.41;101314.84;4468773;32;33835;-66
2022/11/11 10:17:53;;;;;;;;;;;;;;;22.55;38.11;101318.53;4470451;32;34875;-65
2022/11/11 10:20:41;;;;;;;;;;;;;;;22.28;37.68;101317.56;4462630;32;33502;-65
2022/11/11 10:23:34;;;;;;;;;;;;;;;21.69;39.10;101318.78;4466014;32;33719;-68
2022/11/11 10:26:23;;;;;;;;;;;;;;;21.21;39.80;101311.56;4477130;32;34125;-68
2022/11/11 10:29:18;;;;;;;;;;;;;;;21.10;40.08;101304.44;4463208;32;34390;-66
2022/11/11 10:32:14;;;;;;;;;;;;;;;20.58;40.64;101303.88;4470908;32;33445;-65
2022/11/11 10:35:23;;;;;;;;;;;;;;;20.63;40.67;101300.72;4466235;32;34057;-65
2022/11/11 10:38:09;;;;;;;;;;;;;;;20.73;41.06;101296.12;4469894;32;34075;-67
2022/11/11 10:40:56;;;;;;;;;;;;;;;20.51;42.15;101290.94;4483695;32;35447;-67
2022/11/11 10:43:44;;;;;;;;;;;;;;;19.94;42.69;101296.97;4469603;32;33173;-66
2022/11/11 10:46:37;;;;;;;;;;;;;;;20.05;43.08;101297.84;4483751;32;32963;-67
2022/11/11 10:49:26;;;;;;;;;;;;;;;20.25;42.53;101297.75;4468636;32;35499;-67
2022/11/11 10:52:18;;;;;;;;;;;;;;;19.34;43.88;101308.66;4451911;32;33783;-65
2022/11/11 10:55:05;;;;;;;;;;;;;;;19.22;44.36;101316.84;4466659;32;32986;-65
2022/11/11 10:57:51;;;;;;;;;;;;;;;19.07;44.82;101324.47;4470108;32;34206;-65
2022/11/11 11:00:37;;;;;;;;;;;;;;;19.17;44.92;101313.69;4467889;32;33795;-65
2022/11/11 11:03:39;;;;;;;;;;;;;;;18.15;47.81;101315.00;4462402;32;34128;-64
2022/11/11 11:06:29;;;;;;;;;;;;;;;17.97;49.84;101311.06;4469918;32;34816;-64
2022/11/11 11:09:26;;;;;;;;;;;;;;;18.11;48.57;101308.13;4470331;32;32941;-64
2022/11/11 11:12:14;;;;;;;;;;;;;;;17.79;50.16;101308.03;4460500;32;34570;-64
2022/11/11 11:15:02;;;;;;;;;;;;;;;18.02;48.58;101298.88;4474966;32;34119;-64
2022/11/11 11:18:07;;;;;;;;;;;;;;;17.73;49.64;101279.56;4461782;32;34164;-64
2022/11/11 11:21:00;;;;;;;;;;;;;;;17.71;49.42;101270.69;4468614;32;32967;-65
2022/11/11 11:23:46;;;;;;;;;;;;;;;17.41;50.20;101274.00;4470132;32;33485;-64
2022/11/11 11:26:47;;;;;;;;;;;;;;;17.42;50.05;101270.31;4467994;32;34767;-64
2022/11/11 11:29:37;;;;;;;;;;;;;;;17.13;51.34;101273.47;4467726;32;34222;-64
2022/11/11 11:32:27;;;;;;;;;;;;;;;17.08;51.64;101267.56;4458940;32;35199;-64
2022/11/11 11:35:28;;;;;;;;;;;;;;;17.03;51.43;101267.03;4470982;31;35194;-64
2022/11/11 11:38:14;;;;;;;;;;;;;;;17.03;51.84;101271.59;4470841;32;33858;-65
2022/11/11 11:41:00;;;;;;;;;;;;;;;16.86;52.53;101268.34;4471592;32;33796;-63
2022/11/11 11:43:46;;;;;;;;;;;;;;;17.00;52.52;101268.13;4477077;32;34309;-63
2022/11/11 11:46:31;;;;;;;;;;;;;;;16.65;53.79;101273.53;4460866;32;35230;-63
2022/11/11 11:49:33;;;;;;;;;;;;;;;16.95;53.29;101274.88;4473229;32;34187;-65
2022/11/11 11:52:25;;;;;;;;;;;;;;;17.10;53.06;101272.84;4460523;32;31461;-64
2022/11/11 11:55:12;;;;;;;;;;;;;;;17.05;53.10;101278.63;4470128;32;34035;-63
2022/11/11 11:58:13;;;;;;;;;;;;;;;16.98;54.12;101282.75;4467056;32;32651;-63
2022/11/11 12:01:03;;;;;;;;;;;;;;;17.25;52.99;101274.34;4466146;32;34147;-63
2022/11/11 12:04:08;;;;;;;;;;;;;;;17.28;53.14;101284.06;4475761;32;33351;-64
2022/11/11 12:07:05;;;;;;;;;;;;;;;17.35;53.57;101280.75;4470193;32;34128;-63
2022/11/11 12:09:59;;;;;;;;;;;;;;;17.66;52.71;101286.44;4455214;32;32713;-63
2022/11/11 12:12:57;;;;;;;;;;;;;;;17.59;53.39;101290.59;4454977;32;32797;-64
2022/11/11 12:16:01;;;;;;;;;;;;;;;17.58;53.62;101291.59;4448590;32;33102;-65
2022/11/11 12:18:57;;;;;;;;;;;;;;;17.40;53.43;101296.66;4460553;32;33507;-64
2022/11/11 12:21:46;;;;;;;;;;;;;;;17.37;53.59;101292.34;4462023;32;33911;-63
2022/11/11 12:24:50;;;;;;;;;;;;;;;17.95;52.02;101294.09;4466956;32;33680;-63
2022/11/11 12:27:36;;;;;;;;;;;;;;;17.84;52.48;101284.97;4479049;32;33277;-63
2022/11/11 12:30:27;;;;;;;;;;;;;;;18.09;51.24;101283.84;4465951;32;34221;-64
2022/11/11 12:33:17;;;;;;;;;;;;;;;17.62;51.69;101290.38;4466296;32;32803;-63
2022/11/11 12:36:07;;;;;;;;;;;;;;;17.83;51.07;101285.97;4448486;32;32620;-63
2022/11/11 12:38:57;;;;;;;;;;;;;;;17.92;50.60;101297.91;4464290;31;32707;-64
2022/11/11 12:41:42;;;;;;;;;;;;;;;17.80;50.90;101297.06;4461914;32;34401;-63
2022/11/11 12:44:49;;;;;;;;;;;;;;;17.68;51.36;101293.44;4457471;32;33918;-64
2022/11/11 12:47:54;;;;;;;;;;;;;;;17.69;50.36;101292.47;4474841;32;34057;-62
2022/11/11 12:51:00;;;;;;;;;;;;;;;17.52;51.44;101290.25;4468793;32;33999;-64
2022/11/11 12:53:50;;;;;;;;;;;;;;;18.24;48.59;101276.31;4471457;32;35710;-62
2022/11/11 12:56:48;;;;;;;;;;;;;;;18.05;49.41;101270.69;4465281;32;32669;-64
2022/11/11 12:59:40;;;;;;;;;;;;;;;17.71;49.62;101276.09;4462760;32;32424;-63
2022/11/11 13:02:35;;;;;;;;;;;;;;;18.21;47.21;101287.41;4466116;32;31732;-64
2022/11/11 13:05:24;;;;;;;;;;;;;;;18.01;48.55;101307.13;4463135;32;34189;-63
2022/11/11 13:08:32;;;;;;;;;;;;;;;18.22;48.16;101290.97;4468237;32;34042;-64
2022/11/11 13:11:30;;;;;;;;;;;;;;;18.03;47.82;101288.91;4472269;32;35637;-63
2022/11/11 13:14:25;;;;;;;;;;;;;;;18.13;47.38;101277.19;4458705;31;33346;-63
2022/11/11 13:17:11;;;;;;;;;;;;;;;17.96;48.66;101266.88;4473372;32;32652;-63
2022/11/11 13:19:58;;;;;;;;;;;;;;;18.02;48.01;101265.53;4476856;32;33373;-63
2022/11/11 13:22:44;;;;;;;;;;;;;;;18.20;47.82;101257.69;4462814;32;32704;-66
2022/11/11 13:25:31;;;;;;;;;;;;;;;18.25;47.84;101259.06;4460355;32;33507;-63
2022/11/11 13:28:21;;;;;;;;;;;;;;;18.28;47.95;101264.22;4464334;32;34814;-63
2022/11/11 13:31:14;;;;;;;;;;;;;;;17.92;48.46;101254.59;4456390;32;33101;-66
2022/11/11 13:34:04;;;;;;;;;;;;;;;18.36;47.49;101269.00;4462561;32;33785;-64
2022/11/11 13:36:51;;;;;;;;;;;;;;;18.08;48.64;101268.59;4461737;32;32969;-64
2022/11/11 13:39:39;;;;;;;;;;;;;;;18.34;47.88;101271.84;4451273;32;33513;-64
2022/11/11 13:42:25;;;;;;;;;;;;;;;18.45;47.35;101267.37;4453760;32;33958;-63
2022/11/11 13:45:40;;;;;;;;;;;;;;;18.17;47.53;101261.56;4469967;32;35254;-63
2022/11/11 13:48:27;;;;;;;;;;;;;;;18.24;47.08;101262.75;4469784;32;33316;-66
2022/11/11 13:51:19;;;;;;;;;;;;;;;18.48;46.74;101251.69;4468068;32;34574;-64
2022/11/11 13:54:06;;;;;;;;;;;;;;;18.65;45.89;101246.69;4457749;32;33621;-63
2022/11/11 13:56:52;;;;;;;;;;;;;;;18.04;47.71;101241.84;4458565;32;34061;-63
2022/11/11 13:59:38;;;;;;;;;;;;;;;18.47;46.68;101251.84;4462156;32;33516;-63
2022/11/11 14:02:28;;;;;;;;;;;;;;;17.85;48.56;101253.38;4455529;32;34115;-62
2022/11/11 14:05:14;;;;;;;;;;;;;;;18.19;47.97;101247.88;4480417;31;34042;-63
2022/11/11 14:08:00;;;;;;;;;;;;;;;18.27;47.16;101248.09;4464016;32;32874;-65
2022/11/11 14:10:53;;;;;;;;;;;;;;;17.95;48.45;101248.06;4467688;32;32284;-63
2022/11/11 14:13:39;;;;;;;;;;;;;;;17.77;48.89;101250.41;4460491;32;34604;-63
2022/11/11 14:16:34;;;;;;;;;;;;;;;17.96;48.38;101252.47;4468349;32;34289;-65
2022/11/11 14:19:20;;;;;;;;;;;;;;;17.66;49.19;101251.25;4480278;32;34150;-63
2022/11/11 14:22:32;;;;;;;;;;;;;;;18.18;47.84;101254.28;4472168;32;31708;-63
2022/11/11 14:25:19;;;;;;;;;;;;;;;18.22;47.60;101248.47;4477314;32;35334;-63
2022/11/11 14:28:18;;;;;;;;;;;;;;;18.33;47.67;101248.44;4470368;32;32955;-64
2022/11/11 14:31:12;;;;;;;;;;;;;;;18.28;47.96;101238.97;4471097;32;34442;-64
2022/11/11 14:33:58;;;;;;;;;;;;;;;18.27;47.96;101227.28;4471395;32;31904;-63
2022/11/11 14:36:54;;;;;;;;;;;;;;;18.35;47.75;101219.34;4453650;32;32783;-63
2022/11/11 14:39:47;;;;;;;;;;;;;;;18.19;48.32;101218.91;4455939;32;32498;-64
2022/11/11 14:42:34;;;;;;;;;;;;;;;18.37;47.75;101214.66;4466680;32;34897;-63
2022/11/11 14:45:24;;;;;;;;;;;;;;;18.22;48.28;101212.38;4464596;32;32984;-63
2022/11/11 14:48:30;;;;;;;;;;;;;;;18.37;47.85;101213.81;4474583;32;34332;-64
2022/11/11 14:51:34;;;;;;;;;;;;;;;18.37;47.88;101217.38;4479795;32;34115;-63
2022/11/11 14:54:36;;;;;;;;;;;;;;;18.36;47.77;101218.38;4459689;32;33941;-63
2022/11/11 14:57:24;;;;;;;;;;;;;;;18.30;48.19;101209.91;4470525;32;34023;-64
2022/11/11 15:00:22;;;;;;;;;;;;;;;18.29;48.31;101217.16;4461140;32;35517;-63
2022/11/11 15:03:23;;;;;;;;;;;;;;;18.26;48.57;101217.41;4461771;32;33994;-63
2022/11/11 15:06:28;;;;;;;;;;;;;;;18.32;48.58;101227.72;4468925;32;34363;-63
2022/11/11 15:09:19;;;;;;;;;;;;;;;18.32;48.51;101224.16;4471303;32;34721;-63
2022/11/11 15:12:12;;;;;;;;;;;;;;;18.36;48.09;101217.50;4481414;32;34497;-63
2022/11/11 15:15:02;;;;;;;;;;;;;;;18.25;48.38;101218.41;4448232;32;32999;-63
2022/11/11 15:17:54;;;;;;;;;;;;;;;18.00;48.85;101207.88;4466502;32;32513;-64
2022/11/11 15:20:43;;;;;;;;;;;;;;;18.07;48.64;101212.69;4466082;32;33727;-63
2022/11/11 15:23:35;;;;;;;;;;;;;;;18.04;48.84;101231.91;4471749;32;33813;-63
2022/11/11 15:26:27;;;;;;;;;;;;;;;17.96;48.80;101228.09;4457992;32;32546;-63
2022/11/11 15:29:20;;;;;;;;;;;;;;;17.97;48.73;101229.81;4466981;32;33566;-66
2022/11/11 15:32:25;;;;;;;;;;;;;;;17.93;48.75;101224.63;4455625;32;32097;-66
2022/11/11 15:35:22;;;;;;;;;;;;;;;17.73;49.44;101227.25;4459245;32;33962;-67
2022/11/11 15:38:09;;;;;;;;;;;;;;;17.41;50.29;101220.72;4459873;32;34404;-64
2022/11/11 15:40:57;;;;;;;;;;;;;;;17.37;50.25;101213.84;4475594;32;34142;-63
2022/11/11 15:43:44;;;;;;;;;;;;;;;17.26;50.80;101221.09;4461355;32;33231;-63
2022/11/11 15:46:30;;;;;;;;;;;;;;;17.31;50.74;101230.56;4467462;32;33550;-64
2022/11/11 15:49:34;;;;;;;;;;;;;;;17.39;49.95;101230.81;4461349;32;34429;-64
2022/11/11 15:52:20;;;;;;;;;;;;;;;17.34;49.98;101232.19;4468862;32;34442;-64